sensor_id;sensor_type;location;lat;lon;timestamp;temperature;humidity
25188;DHT22;13141;50.414;8.050;2022-08-21T00:01:19;18.80;95.50
25188;DHT22;13141;50.414;8.050;2022-08-21T00:03:45;18.70;95.50
25188;DHT22;13141;50.414;8.050;2022-08-21T00:06:11;18.70;95.30
25188;DHT22;13141;50.414;8.050;2022-08-21T00:08:36;18.70;95.20
25188;DHT22;13141;50.414;8.050;2022-08-21T00:11:03;18.70;95.30
25188;DHT22;13141;50.414;8.050;2022-08-21T00:13:29;18.70;95.70
25188;DHT22;13141;50.414;8.050;2022-08-21T00:15:54;18.70;95.70
25188;DHT22;13141;50.414;8.050;2022-08-21T00:18:20;18.60;95.90
25188;DHT22;13141;50.414;8.050;2022-08-21T00:20:46;18.60;95.90
25188;DHT22;13141;50.414;8.050;2022-08-21T00:23:12;18.50;95.50
25188;DHT22;13141;50.414;8.050;2022-08-21T00:25:38;18.50;95.70
25188;DHT22;13141;50.414;8.050;2022-08-21T00:28:04;18.40;96.50
25188;DHT22;13141;50.414;8.050;2022-08-21T00:30:31;18.30;95.90
25188;DHT22;13141;50.414;8.050;2022-08-21T00:32:57;18.20;96.40
25188;DHT22;13141;50.414;8.050;2022-08-21T00:35:30;18.20;96.50
25188;DHT22;13141;50.414;8.050;2022-08-21T00:37:56;18.10;96.10
25188;DHT22;13141;50.414;8.050;2022-08-21T00:43:10;17.90;96.40
25188;DHT22;13141;50.414;8.050;2022-08-21T00:45:36;17.80;96.40
25188;DHT22;13141;50.414;8.050;2022-08-21T00:48:01;17.80;96.60
25188;DHT22;13141;50.414;8.050;2022-08-21T00:50:30;17.80;96.60
25188;DHT22;13141;50.414;8.050;2022-08-21T00:52:57;17.80;96.70
25188;DHT22;13141;50.414;8.050;2022-08-21T00:55:24;17.70;97.30
25188;DHT22;13141;50.414;8.050;2022-08-21T00:57:52;17.60;97.00
25188;DHT22;13141;50.414;8.050;2022-08-21T01:00:23;17.60;97.00
25188;DHT22;13141;50.414;8.050;2022-08-21T01:02:49;17.60;97.00
25188;DHT22;13141;50.414;8.050;2022-08-21T01:05:15;17.50;97.30
25188;DHT22;13141;50.414;8.050;2022-08-21T01:07:42;17.50;97.70
25188;DHT22;13141;50.414;8.050;2022-08-21T01:10:08;17.40;97.80
25188;DHT22;13141;50.414;8.050;2022-08-21T01:12:34;17.40;97.60
25188;DHT22;13141;50.414;8.050;2022-08-21T01:15:02;17.40;97.60
25188;DHT22;13141;50.414;8.050;2022-08-21T01:17:29;17.40;97.70
25188;DHT22;13141;50.414;8.050;2022-08-21T01:19:59;17.30;97.50
25188;DHT22;13141;50.414;8.050;2022-08-21T01:22:26;17.30;98.10
25188;DHT22;13141;50.414;8.050;2022-08-21T01:24:52;17.20;98.50
25188;DHT22;13141;50.414;8.050;2022-08-21T01:27:17;17.20;98.50
25188;DHT22;13141;50.414;8.050;2022-08-21T01:32:44;17.10;98.70
25188;DHT22;13141;50.414;8.050;2022-08-21T01:35:13;17.00;98.60
25188;DHT22;13141;50.414;8.050;2022-08-21T01:37:39;17.20;98.70
25188;DHT22;13141;50.414;8.050;2022-08-21T01:40:06;17.00;98.70
25188;DHT22;13141;50.414;8.050;2022-08-21T01:42:32;17.00;98.50
25188;DHT22;13141;50.414;8.050;2022-08-21T01:44:58;17.00;98.70
25188;DHT22;13141;50.414;8.050;2022-08-21T01:47:24;17.00;98.50
25188;DHT22;13141;50.414;8.050;2022-08-21T01:49:50;16.90;98.90
25188;DHT22;13141;50.414;8.050;2022-08-21T01:52:15;16.90;98.30
25188;DHT22;13141;50.414;8.050;2022-08-21T01:54:42;16.90;98.80
25188;DHT22;13141;50.414;8.050;2022-08-21T01:57:08;16.90;99.10
25188;DHT22;13141;50.414;8.050;2022-08-21T01:59:34;16.90;98.70
25188;DHT22;13141;50.414;8.050;2022-08-21T02:02:00;16.90;98.50
25188;DHT22;13141;50.414;8.050;2022-08-21T02:04:26;16.80;98.90
25188;DHT22;13141;50.414;8.050;2022-08-21T02:06:51;16.80;99.10
25188;DHT22;13141;50.414;8.050;2022-08-21T02:09:18;16.80;99.00
25188;DHT22;13141;50.414;8.050;2022-08-21T02:11:43;16.70;99.10
25188;DHT22;13141;50.414;8.050;2022-08-21T02:14:11;16.70;99.10
25188;DHT22;13141;50.414;8.050;2022-08-21T02:16:39;16.70;98.70
25188;DHT22;13141;50.414;8.050;2022-08-21T02:19:04;16.60;99.10
25188;DHT22;13141;50.414;8.050;2022-08-21T02:21:30;16.60;99.10
25188;DHT22;13141;50.414;8.050;2022-08-21T02:23:56;16.60;99.60
25188;DHT22;13141;50.414;8.050;2022-08-21T02:26:22;16.60;99.20
25188;DHT22;13141;50.414;8.050;2022-08-21T02:28:47;16.60;99.10
25188;DHT22;13141;50.414;8.050;2022-08-21T02:31:13;16.50;99.30
25188;DHT22;13141;50.414;8.050;2022-08-21T02:33:39;16.50;99.60
25188;DHT22;13141;50.414;8.050;2022-08-21T02:36:05;16.40;99.30
25188;DHT22;13141;50.414;8.050;2022-08-21T02:38:34;16.30;99.50
25188;DHT22;13141;50.414;8.050;2022-08-21T02:41:04;16.20;99.90
25188;DHT22;13141;50.414;8.050;2022-08-21T02:43:30;16.10;99.70
25188;DHT22;13141;50.414;8.050;2022-08-21T02:45:56;16.10;99.60
25188;DHT22;13141;50.414;8.050;2022-08-21T02:48:25;16.20;99.80
25188;DHT22;13141;50.414;8.050;2022-08-21T02:50:57;16.20;99.60
25188;DHT22;13141;50.414;8.050;2022-08-21T02:53:23;16.20;99.30
25188;DHT22;13141;50.414;8.050;2022-08-21T02:55:50;16.20;99.40
25188;DHT22;13141;50.414;8.050;2022-08-21T02:58:19;16.20;99.60
25188;DHT22;13141;50.414;8.050;2022-08-21T03:00:45;16.20;99.70
25188;DHT22;13141;50.414;8.050;2022-08-21T03:03:10;16.20;99.60
25188;DHT22;13141;50.414;8.050;2022-08-21T03:05:37;16.20;99.90
25188;DHT22;13141;50.414;8.050;2022-08-21T03:08:05;16.20;99.80
25188;DHT22;13141;50.414;8.050;2022-08-21T03:10:35;16.10;99.80
25188;DHT22;13141;50.414;8.050;2022-08-21T03:13:01;16.10;99.60
25188;DHT22;13141;50.414;8.050;2022-08-21T03:15:29;16.10;99.90
25188;DHT22;13141;50.414;8.050;2022-08-21T03:17:55;16.30;99.90
25188;DHT22;13141;50.414;8.050;2022-08-21T03:20:23;15.90;99.90
25188;DHT22;13141;50.414;8.050;2022-08-21T03:22:50;15.80;99.90
25188;DHT22;13141;50.414;8.050;2022-08-21T03:25:16;15.70;99.90
25188;DHT22;13141;50.414;8.050;2022-08-21T03:27:43;15.60;99.90
25188;DHT22;13141;50.414;8.050;2022-08-21T03:30:10;15.60;99.90
25188;DHT22;13141;50.414;8.050;2022-08-21T03:32:36;15.50;99.90
25188;DHT22;13141;50.414;8.050;2022-08-21T03:35:03;15.50;99.90
25188;DHT22;13141;50.414;8.050;2022-08-21T03:37:29;15.50;99.90
25188;DHT22;13141;50.414;8.050;2022-08-21T03:39:55;15.50;99.90
25188;DHT22;13141;50.414;8.050;2022-08-21T03:42:21;15.40;99.90
25188;DHT22;13141;50.414;8.050;2022-08-21T03:44:46;15.40;99.90
25188;DHT22;13141;50.414;8.050;2022-08-21T03:47:12;15.30;99.90
25188;DHT22;13141;50.414;8.050;2022-08-21T03:49:38;15.40;99.90
25188;DHT22;13141;50.414;8.050;2022-08-21T03:52:04;15.30;99.90
25188;DHT22;13141;50.414;8.050;2022-08-21T03:54:30;15.30;99.90
25188;DHT22;13141;50.414;8.050;2022-08-21T03:56:56;15.20;99.90
25188;DHT22;13141;50.414;8.050;2022-08-21T03:59:21;15.10;99.90
25188;DHT22;13141;50.414;8.050;2022-08-21T04:01:58;15.20;99.90
25188;DHT22;13141;50.414;8.050;2022-08-21T04:04:24;15.20;99.90
25188;DHT22;13141;50.414;8.050;2022-08-21T04:06:50;15.20;99.90
25188;DHT22;13141;50.414;8.050;2022-08-21T04:09:17;15.30;99.90
25188;DHT22;13141;50.414;8.050;2022-08-21T04:11:43;15.20;99.90
25188;DHT22;13141;50.414;8.050;2022-08-21T04:14:09;15.30;99.90
25188;DHT22;13141;50.414;8.050;2022-08-21T04:16:35;15.20;99.90
25188;DHT22;13141;50.414;8.050;2022-08-21T04:19:00;15.20;99.90
25188;DHT22;13141;50.414;8.050;2022-08-21T04:21:26;15.20;99.90
25188;DHT22;13141;50.414;8.050;2022-08-21T04:23:54;15.20;99.90
25188;DHT22;13141;50.414;8.050;2022-08-21T04:26:20;15.10;99.90
25188;DHT22;13141;50.414;8.050;2022-08-21T04:28:46;15.10;99.90
25188;DHT22;13141;50.414;8.050;2022-08-21T04:31:11;15.10;99.90
25188;DHT22;13141;50.414;8.050;2022-08-21T04:33:37;14.90;99.90
25188;DHT22;13141;50.414;8.050;2022-08-21T04:36:03;15.10;99.90
25188;DHT22;13141;50.414;8.050;2022-08-21T04:38:29;15.00;99.90
25188;DHT22;13141;50.414;8.050;2022-08-21T04:40:56;15.00;99.90
25188;DHT22;13141;50.414;8.050;2022-08-21T04:43:22;14.90;99.90
25188;DHT22;13141;50.414;8.050;2022-08-21T04:45:49;15.00;99.90
25188;DHT22;13141;50.414;8.050;2022-08-21T04:48:17;15.20;99.90
25188;DHT22;13141;50.414;8.050;2022-08-21T04:50:54;14.90;99.90
25188;DHT22;13141;50.414;8.050;2022-08-21T04:53:39;14.90;99.90
25188;DHT22;13141;50.414;8.050;2022-08-21T04:56:13;14.80;99.90
25188;DHT22;13141;50.414;8.050;2022-08-21T04:58:39;14.90;99.90
25188;DHT22;13141;50.414;8.050;2022-08-21T05:01:11;14.80;99.90
25188;DHT22;13141;50.414;8.050;2022-08-21T05:03:38;14.70;99.90
25188;DHT22;13141;50.414;8.050;2022-08-21T05:06:07;14.70;99.90
25188;DHT22;13141;50.414;8.050;2022-08-21T05:08:34;14.60;99.90
25188;DHT22;13141;50.414;8.050;2022-08-21T05:11:00;14.70;99.90
25188;DHT22;13141;50.414;8.050;2022-08-21T05:13:25;14.70;99.90
25188;DHT22;13141;50.414;8.050;2022-08-21T05:15:51;14.70;99.90
25188;DHT22;13141;50.414;8.050;2022-08-21T05:18:16;14.70;99.90
25188;DHT22;13141;50.414;8.050;2022-08-21T05:20:42;14.40;99.90
25188;DHT22;13141;50.414;8.050;2022-08-21T05:23:13;14.80;99.90
25188;DHT22;13141;50.414;8.050;2022-08-21T05:25:39;14.80;99.90
25188;DHT22;13141;50.414;8.050;2022-08-21T05:28:04;14.50;99.90
25188;DHT22;13141;50.414;8.050;2022-08-21T05:30:36;14.90;99.90
25188;DHT22;13141;50.414;8.050;2022-08-21T05:33:04;14.90;99.90
25188;DHT22;13141;50.414;8.050;2022-08-21T05:35:31;14.90;99.90
25188;DHT22;13141;50.414;8.050;2022-08-21T05:37:57;15.00;99.90
25188;DHT22;13141;50.414;8.050;2022-08-21T05:40:23;15.00;99.90
25188;DHT22;13141;50.414;8.050;2022-08-21T05:42:50;15.00;99.90
25188;DHT22;13141;50.414;8.050;2022-08-21T05:45:16;15.10;99.90
25188;DHT22;13141;50.414;8.050;2022-08-21T05:47:42;15.00;99.90
25188;DHT22;13141;50.414;8.050;2022-08-21T05:50:08;15.10;99.90
25188;DHT22;13141;50.414;8.050;2022-08-21T05:52:33;15.10;99.90
25188;DHT22;13141;50.414;8.050;2022-08-21T05:54:59;15.10;99.90
25188;DHT22;13141;50.414;8.050;2022-08-21T05:57:24;15.20;99.90
25188;DHT22;13141;50.414;8.050;2022-08-21T05:59:50;15.20;99.90
25188;DHT22;13141;50.414;8.050;2022-08-21T06:02:20;15.30;99.90
25188;DHT22;13141;50.414;8.050;2022-08-21T06:04:46;15.30;99.90
25188;DHT22;13141;50.414;8.050;2022-08-21T06:07:11;15.30;99.90
25188;DHT22;13141;50.414;8.050;2022-08-21T06:09:37;15.40;99.90
25188;DHT22;13141;50.414;8.050;2022-08-21T06:12:12;15.40;99.90
25188;DHT22;13141;50.414;8.050;2022-08-21T06:14:39;15.50;99.90
25188;DHT22;13141;50.414;8.050;2022-08-21T06:17:06;15.50;99.90
25188;DHT22;13141;50.414;8.050;2022-08-21T06:19:32;15.50;99.90
25188;DHT22;13141;50.414;8.050;2022-08-21T06:21:58;15.60;99.90
25188;DHT22;13141;50.414;8.050;2022-08-21T06:24:24;15.70;99.90
25188;DHT22;13141;50.414;8.050;2022-08-21T06:26:50;15.70;99.90
25188;DHT22;13141;50.414;8.050;2022-08-21T06:29:15;15.70;99.90
25188;DHT22;13141;50.414;8.050;2022-08-21T06:31:43;15.80;99.90
25188;DHT22;13141;50.414;8.050;2022-08-21T06:34:09;15.90;99.90
25188;DHT22;13141;50.414;8.050;2022-08-21T06:36:35;15.90;99.90
25188;DHT22;13141;50.414;8.050;2022-08-21T06:39:00;15.90;99.90
25188;DHT22;13141;50.414;8.050;2022-08-21T06:41:26;15.80;99.90
25188;DHT22;13141;50.414;8.050;2022-08-21T06:43:52;15.80;99.90
25188;DHT22;13141;50.414;8.050;2022-08-21T06:46:18;15.80;99.90
25188;DHT22;13141;50.414;8.050;2022-08-21T06:48:43;15.80;99.90
25188;DHT22;13141;50.414;8.050;2022-08-21T06:51:09;15.80;99.90
25188;DHT22;13141;50.414;8.050;2022-08-21T06:53:35;15.90;99.90
25188;DHT22;13141;50.414;8.050;2022-08-21T06:56:00;16.00;99.90
25188;DHT22;13141;50.414;8.050;2022-08-21T06:58:26;16.10;99.90
25188;DHT22;13141;50.414;8.050;2022-08-21T07:00:52;16.20;99.90
25188;DHT22;13141;50.414;8.050;2022-08-21T07:03:26;16.20;99.90
25188;DHT22;13141;50.414;8.050;2022-08-21T07:05:53;16.20;99.90
25188;DHT22;13141;50.414;8.050;2022-08-21T07:08:20;16.20;99.90
25188;DHT22;13141;50.414;8.050;2022-08-21T07:10:46;16.30;99.90
25188;DHT22;13141;50.414;8.050;2022-08-21T07:13:12;16.40;99.90
25188;DHT22;13141;50.414;8.050;2022-08-21T07:15:38;16.30;99.90
25188;DHT22;13141;50.414;8.050;2022-08-21T07:18:04;16.40;99.90
25188;DHT22;13141;50.414;8.050;2022-08-21T07:20:31;16.60;99.90
25188;DHT22;13141;50.414;8.050;2022-08-21T07:23:00;16.70;99.90
25188;DHT22;13141;50.414;8.050;2022-08-21T07:25:26;16.70;99.90
25188;DHT22;13141;50.414;8.050;2022-08-21T07:27:52;16.70;99.90
25188;DHT22;13141;50.414;8.050;2022-08-21T07:30:18;16.80;99.90
25188;DHT22;13141;50.414;8.050;2022-08-21T07:32:44;17.00;99.90
25188;DHT22;13141;50.414;8.050;2022-08-21T07:35:10;17.20;99.90
25188;DHT22;13141;50.414;8.050;2022-08-21T07:37:35;17.30;99.90
25188;DHT22;13141;50.414;8.050;2022-08-21T07:40:01;17.40;99.90
25188;DHT22;13141;50.414;8.050;2022-08-21T07:42:27;17.60;99.90
25188;DHT22;13141;50.414;8.050;2022-08-21T07:44:54;17.80;99.90
25188;DHT22;13141;50.414;8.050;2022-08-21T07:47:21;18.00;99.90
25188;DHT22;13141;50.414;8.050;2022-08-21T07:49:47;18.10;99.90
25188;DHT22;13141;50.414;8.050;2022-08-21T07:52:12;18.30;99.90
25188;DHT22;13141;50.414;8.050;2022-08-21T07:54:38;18.40;99.90
25188;DHT22;13141;50.414;8.050;2022-08-21T07:57:04;18.60;99.90
25188;DHT22;13141;50.414;8.050;2022-08-21T07:59:29;18.80;99.90
25188;DHT22;13141;50.414;8.050;2022-08-21T08:01:55;19.00;99.90
25188;DHT22;13141;50.414;8.050;2022-08-21T08:04:22;19.30;99.70
25188;DHT22;13141;50.414;8.050;2022-08-21T08:06:47;19.30;99.50
25188;DHT22;13141;50.414;8.050;2022-08-21T08:09:13;19.50;99.60
25188;DHT22;13141;50.414;8.050;2022-08-21T08:11:41;19.80;99.10
25188;DHT22;13141;50.414;8.050;2022-08-21T08:14:08;20.10;99.70
25188;DHT22;13141;50.414;8.050;2022-08-21T08:16:33;20.30;98.90
25188;DHT22;13141;50.414;8.050;2022-08-21T08:18:59;20.50;99.20
25188;DHT22;13141;50.414;8.050;2022-08-21T08:21:24;20.80;98.20
25188;DHT22;13141;50.414;8.050;2022-08-21T08:23:50;20.80;98.00
25188;DHT22;13141;50.414;8.050;2022-08-21T08:26:16;21.00;98.70
25188;DHT22;13141;50.414;8.050;2022-08-21T08:28:41;21.40;98.60
25188;DHT22;13141;50.414;8.050;2022-08-21T08:31:07;21.80;98.40
25188;DHT22;13141;50.414;8.050;2022-08-21T08:33:33;22.20;98.60
25188;DHT22;13141;50.414;8.050;2022-08-21T08:35:58;22.60;97.70
25188;DHT22;13141;50.414;8.050;2022-08-21T08:38:25;22.90;97.70
25188;DHT22;13141;50.414;8.050;2022-08-21T08:41:13;23.10;96.80
25188;DHT22;13141;50.414;8.050;2022-08-21T08:43:42;23.30;96.10
25188;DHT22;13141;50.414;8.050;2022-08-21T08:46:15;23.50;96.40
25188;DHT22;13141;50.414;8.050;2022-08-21T08:48:54;23.90;94.50
25188;DHT22;13141;50.414;8.050;2022-08-21T08:51:25;23.90;94.20
25188;DHT22;13141;50.414;8.050;2022-08-21T08:53:59;24.00;94.70
25188;DHT22;13141;50.414;8.050;2022-08-21T08:56:31;24.30;94.70
25188;DHT22;13141;50.414;8.050;2022-08-21T08:59:13;24.60;94.10
25188;DHT22;13141;50.414;8.050;2022-08-21T09:01:39;24.70;92.20
25188;DHT22;13141;50.414;8.050;2022-08-21T09:04:05;24.30;92.10
25188;DHT22;13141;50.414;8.050;2022-08-21T09:06:53;24.40;93.10
25188;DHT22;13141;50.414;8.050;2022-08-21T09:15:12;25.90;90.90
25188;DHT22;13141;50.414;8.050;2022-08-21T09:23:46;26.70;90.60
25188;DHT22;13141;50.414;8.050;2022-08-21T09:26:17;26.80;86.30
25188;DHT22;13141;50.414;8.050;2022-08-21T09:28:44;27.00;89.00
25188;DHT22;13141;50.414;8.050;2022-08-21T09:31:31;27.50;88.40
25188;DHT22;13141;50.414;8.050;2022-08-21T09:34:08;27.70;81.50
25188;DHT22;13141;50.414;8.050;2022-08-21T09:39:03;28.10;80.40
25188;DHT22;13141;50.414;8.050;2022-08-21T09:41:31;28.50;84.70
25188;DHT22;13141;50.414;8.050;2022-08-21T09:44:00;28.50;81.10
25188;DHT22;13141;50.414;8.050;2022-08-21T09:46:27;28.40;78.00
25188;DHT22;13141;50.414;8.050;2022-08-21T09:48:58;28.30;78.10
25188;DHT22;13141;50.414;8.050;2022-08-21T09:51:27;28.50;77.80
25188;DHT22;13141;50.414;8.050;2022-08-21T09:56:50;28.60;74.90
25188;DHT22;13141;50.414;8.050;2022-08-21T09:59:35;29.00;75.00
25188;DHT22;13141;50.414;8.050;2022-08-21T10:02:28;29.40;76.40
25188;DHT22;13141;50.414;8.050;2022-08-21T10:05:01;30.10;75.20
25188;DHT22;13141;50.414;8.050;2022-08-21T10:07:30;30.60;73.30
25188;DHT22;13141;50.414;8.050;2022-08-21T10:12:47;31.20;66.50
25188;DHT22;13141;50.414;8.050;2022-08-21T10:15:22;31.00;66.70
25188;DHT22;13141;50.414;8.050;2022-08-21T10:18:01;31.30;70.40
25188;DHT22;13141;50.414;8.050;2022-08-21T10:20:39;31.60;66.70
25188;DHT22;13141;50.414;8.050;2022-08-21T10:25:52;31.70;62.90
25188;DHT22;13141;50.414;8.050;2022-08-21T10:31:18;31.80;58.30
25188;DHT22;13141;50.414;8.050;2022-08-21T10:34:05;31.40;59.40
25188;DHT22;13141;50.414;8.050;2022-08-21T10:36:40;31.50;57.70
25188;DHT22;13141;50.414;8.050;2022-08-21T10:42:02;31.90;60.60
25188;DHT22;13141;50.414;8.050;2022-08-21T10:47:23;32.60;56.70
25188;DHT22;13141;50.414;8.050;2022-08-21T10:50:14;32.70;55.60
25188;DHT22;13141;50.414;8.050;2022-08-21T10:53:07;32.80;54.50
25188;DHT22;13141;50.414;8.050;2022-08-21T10:55:46;33.20;55.70
25188;DHT22;13141;50.414;8.050;2022-08-21T10:58:23;33.40;55.90
25188;DHT22;13141;50.414;8.050;2022-08-21T11:00:55;33.60;56.20
25188;DHT22;13141;50.414;8.050;2022-08-21T11:03:31;33.70;53.50
25188;DHT22;13141;50.414;8.050;2022-08-21T11:06:08;33.80;52.80
25188;DHT22;13141;50.414;8.050;2022-08-21T11:08:46;34.10;53.60
25188;DHT22;13141;50.414;8.050;2022-08-21T11:11:44;34.60;52.70
25188;DHT22;13141;50.414;8.050;2022-08-21T11:17:11;35.30;51.90
25188;DHT22;13141;50.414;8.050;2022-08-21T11:20:05;35.70;51.10
25188;DHT22;13141;50.414;8.050;2022-08-21T11:25:22;35.90;47.90
25188;DHT22;13141;50.414;8.050;2022-08-21T11:27:55;35.70;46.90
25188;DHT22;13141;50.414;8.050;2022-08-21T11:30:37;35.70;45.60
25188;DHT22;13141;50.414;8.050;2022-08-21T11:33:12;35.60;48.80
25188;DHT22;13141;50.414;8.050;2022-08-21T11:36:09;36.20;48.80
25188;DHT22;13141;50.414;8.050;2022-08-21T11:38:45;36.60;46.60
25188;DHT22;13141;50.414;8.050;2022-08-21T11:41:29;36.90;46.20
25188;DHT22;13141;50.414;8.050;2022-08-21T11:52:13;37.30;43.80
25188;DHT22;13141;50.414;8.050;2022-08-21T11:55:23;37.40;43.00
25188;DHT22;13141;50.414;8.050;2022-08-21T11:57:51;37.70;43.30
25188;DHT22;13141;50.414;8.050;2022-08-21T12:00:33;37.80;42.20
25188;DHT22;13141;50.414;8.050;2022-08-21T12:03:13;37.60;42.10
25188;DHT22;13141;50.414;8.050;2022-08-21T12:05:46;37.90;42.00
25188;DHT22;13141;50.414;8.050;2022-08-21T12:08:31;38.20;42.00
25188;DHT22;13141;50.414;8.050;2022-08-21T12:13:30;38.30;40.40
25188;DHT22;13141;50.414;8.050;2022-08-21T12:16:12;38.50;41.90
25188;DHT22;13141;50.414;8.050;2022-08-21T12:18:39;38.80;39.70
25188;DHT22;13141;50.414;8.050;2022-08-21T12:21:21;38.20;39.90
25188;DHT22;13141;50.414;8.050;2022-08-21T12:24:00;37.80;40.30
25188;DHT22;13141;50.414;8.050;2022-08-21T12:26:34;37.80;40.70
25188;DHT22;13141;50.414;8.050;2022-08-21T12:34:34;38.30;40.30
25188;DHT22;13141;50.414;8.050;2022-08-21T12:37:04;38.40;39.70
25188;DHT22;13141;50.414;8.050;2022-08-21T12:39:35;38.30;39.00
25188;DHT22;13141;50.414;8.050;2022-08-21T12:42:05;38.40;40.50
25188;DHT22;13141;50.414;8.050;2022-08-21T12:44:38;38.30;39.60
25188;DHT22;13141;50.414;8.050;2022-08-21T12:47:33;38.20;38.80
25188;DHT22;13141;50.414;8.050;2022-08-21T12:50:11;38.10;38.90
25188;DHT22;13141;50.414;8.050;2022-08-21T12:53:01;38.20;39.40
25188;DHT22;13141;50.414;8.050;2022-08-21T12:55:32;38.30;39.10
25188;DHT22;13141;50.414;8.050;2022-08-21T12:57:58;38.30;38.20
25188;DHT22;13141;50.414;8.050;2022-08-21T13:00:25;38.50;39.80
25188;DHT22;13141;50.414;8.050;2022-08-21T13:02:52;38.50;38.50
25188;DHT22;13141;50.414;8.050;2022-08-21T13:05:31;38.70;38.10
25188;DHT22;13141;50.414;8.050;2022-08-21T13:07:57;39.00;38.80
25188;DHT22;13141;50.414;8.050;2022-08-21T13:10:29;39.00;37.00
25188;DHT22;13141;50.414;8.050;2022-08-21T13:13:01;39.30;39.40
25188;DHT22;13141;50.414;8.050;2022-08-21T13:15:36;39.60;39.10
25188;DHT22;13141;50.414;8.050;2022-08-21T13:18:04;39.80;36.50
25188;DHT22;13141;50.414;8.050;2022-08-21T13:20:39;40.00;37.90
25188;DHT22;13141;50.414;8.050;2022-08-21T13:23:24;40.20;36.60
25188;DHT22;13141;50.414;8.050;2022-08-21T13:25:50;40.20;36.40
25188;DHT22;13141;50.414;8.050;2022-08-21T13:28:16;40.30;36.40
25188;DHT22;13141;50.414;8.050;2022-08-21T13:30:45;40.50;36.10
25188;DHT22;13141;50.414;8.050;2022-08-21T13:33:14;40.50;35.00
25188;DHT22;13141;50.414;8.050;2022-08-21T13:35:52;40.20;34.00
25188;DHT22;13141;50.414;8.050;2022-08-21T13:38:25;40.40;35.60
25188;DHT22;13141;50.414;8.050;2022-08-21T13:40:56;40.60;35.20
25188;DHT22;13141;50.414;8.050;2022-08-21T13:43:28;40.50;34.50
25188;DHT22;13141;50.414;8.050;2022-08-21T13:45:55;40.60;33.80
25188;DHT22;13141;50.414;8.050;2022-08-21T13:48:23;40.40;33.10
25188;DHT22;13141;50.414;8.050;2022-08-21T13:50:50;40.40;33.70
25188;DHT22;13141;50.414;8.050;2022-08-21T13:53:44;40.30;33.80
25188;DHT22;13141;50.414;8.050;2022-08-21T13:56:32;40.60;32.50
25188;DHT22;13141;50.414;8.050;2022-08-21T13:59:00;41.00;33.00
25188;DHT22;13141;50.414;8.050;2022-08-21T14:01:33;41.10;32.90
25188;DHT22;13141;50.414;8.050;2022-08-21T14:04:22;41.30;33.60
25188;DHT22;13141;50.414;8.050;2022-08-21T14:06:49;41.40;34.10
25188;DHT22;13141;50.414;8.050;2022-08-21T14:09:32;41.30;34.00
25188;DHT22;13141;50.414;8.050;2022-08-21T14:12:02;40.50;32.00
25188;DHT22;13141;50.414;8.050;2022-08-21T14:14:32;40.60;33.10
25188;DHT22;13141;50.414;8.050;2022-08-21T14:17:02;40.80;32.50
25188;DHT22;13141;50.414;8.050;2022-08-21T14:19:43;40.90;33.70
25188;DHT22;13141;50.414;8.050;2022-08-21T14:30:29;41.30;32.40
25188;DHT22;13141;50.414;8.050;2022-08-21T14:32:56;41.10;31.50
25188;DHT22;13141;50.414;8.050;2022-08-21T14:35:22;40.90;33.20
25188;DHT22;13141;50.414;8.050;2022-08-21T14:37:48;40.90;32.50
25188;DHT22;13141;50.414;8.050;2022-08-21T14:40:18;41.00;32.10
25188;DHT22;13141;50.414;8.050;2022-08-21T14:42:45;40.90;31.60
25188;DHT22;13141;50.414;8.050;2022-08-21T14:45:16;40.90;31.60
25188;DHT22;13141;50.414;8.050;2022-08-21T14:47:42;40.90;31.80
25188;DHT22;13141;50.414;8.050;2022-08-21T14:50:11;40.80;31.80
25188;DHT22;13141;50.414;8.050;2022-08-21T14:52:37;40.90;31.00
25188;DHT22;13141;50.414;8.050;2022-08-21T14:55:06;40.40;31.30
25188;DHT22;13141;50.414;8.050;2022-08-21T14:57:33;39.90;30.80
25188;DHT22;13141;50.414;8.050;2022-08-21T14:59:59;39.60;30.10
25188;DHT22;13141;50.414;8.050;2022-08-21T15:02:25;39.10;31.00
25188;DHT22;13141;50.414;8.050;2022-08-21T15:04:50;38.90;31.60
25188;DHT22;13141;50.414;8.050;2022-08-21T15:07:16;39.00;31.80
25188;DHT22;13141;50.414;8.050;2022-08-21T15:09:42;39.20;32.00
25188;DHT22;13141;50.414;8.050;2022-08-21T15:12:07;39.30;31.60
25188;DHT22;13141;50.414;8.050;2022-08-21T15:14:36;39.40;31.40
25188;DHT22;13141;50.414;8.050;2022-08-21T15:17:04;39.40;31.10
25188;DHT22;13141;50.414;8.050;2022-08-21T15:19:30;39.40;32.20
25188;DHT22;13141;50.414;8.050;2022-08-21T15:21:56;39.40;31.50
25188;DHT22;13141;50.414;8.050;2022-08-21T15:24:22;39.10;30.20
25188;DHT22;13141;50.414;8.050;2022-08-21T15:26:48;38.90;32.10
25188;DHT22;13141;50.414;8.050;2022-08-21T15:29:14;38.80;32.20
25188;DHT22;13141;50.414;8.050;2022-08-21T15:31:54;38.70;32.40
25188;DHT22;13141;50.414;8.050;2022-08-21T15:34:20;38.70;31.20
25188;DHT22;13141;50.414;8.050;2022-08-21T15:36:46;38.20;31.10
25188;DHT22;13141;50.414;8.050;2022-08-21T15:39:12;37.90;31.90
25188;DHT22;13141;50.414;8.050;2022-08-21T15:41:37;37.70;32.50
25188;DHT22;13141;50.414;8.050;2022-08-21T15:44:03;37.80;32.60
25188;DHT22;13141;50.414;8.050;2022-08-21T15:46:29;37.90;32.70
25188;DHT22;13141;50.414;8.050;2022-08-21T15:48:54;38.10;32.80
25188;DHT22;13141;50.414;8.050;2022-08-21T15:51:20;38.30;32.40
25188;DHT22;13141;50.414;8.050;2022-08-21T15:53:45;38.50;32.80
25188;DHT22;13141;50.414;8.050;2022-08-21T15:56:23;38.40;32.40
25188;DHT22;13141;50.414;8.050;2022-08-21T15:58:52;38.50;32.80
25188;DHT22;13141;50.414;8.050;2022-08-21T16:01:19;38.30;32.30
25188;DHT22;13141;50.414;8.050;2022-08-21T16:03:48;38.00;31.80
25188;DHT22;13141;50.414;8.050;2022-08-21T16:06:15;37.50;32.00
25188;DHT22;13141;50.414;8.050;2022-08-21T16:08:40;37.20;32.50
25188;DHT22;13141;50.414;8.050;2022-08-21T16:11:06;36.90;33.00
25188;DHT22;13141;50.414;8.050;2022-08-21T16:13:37;36.70;33.40
25188;DHT22;13141;50.414;8.050;2022-08-21T16:16:04;36.50;32.90
25188;DHT22;13141;50.414;8.050;2022-08-21T16:18:30;36.20;33.70
25188;DHT22;13141;50.414;8.050;2022-08-21T16:20:56;36.00;34.20
25188;DHT22;13141;50.414;8.050;2022-08-21T16:23:22;35.90;34.60
25188;DHT22;13141;50.414;8.050;2022-08-21T16:25:48;35.30;34.60
25188;DHT22;13141;50.414;8.050;2022-08-21T16:28:17;35.50;34.70
25188;DHT22;13141;50.414;8.050;2022-08-21T16:30:46;35.20;35.50
25188;DHT22;13141;50.414;8.050;2022-08-21T16:33:27;35.30;35.70
25188;DHT22;13141;50.414;8.050;2022-08-21T16:35:54;34.80;35.50
25188;DHT22;13141;50.414;8.050;2022-08-21T16:38:20;34.80;36.40
25188;DHT22;13141;50.414;8.050;2022-08-21T16:40:46;34.50;36.30
25188;DHT22;13141;50.414;8.050;2022-08-21T16:43:11;34.40;36.30
25188;DHT22;13141;50.414;8.050;2022-08-21T16:45:42;34.20;36.80
25188;DHT22;13141;50.414;8.050;2022-08-21T16:48:07;34.10;37.00
25188;DHT22;13141;50.414;8.050;2022-08-21T16:50:35;34.10;37.20